Time;durP1;ratioP1;P1;durP2;ratioP2;P2;SDS_P1;SDS_P2;PMS_P1;PMS_P2;Temp;Humidity;BMP_temperature;BMP_pressure;BME280_temperature;BME280_humidity;BME280_pressure;Samples;Min_cycle;Max_cycle;Signal;HPM_P1;HPM_P2
2021/04/09 00:00:54;;;;;;;;;23.00;20.83;;;;;9.30;42.45;99560.59;5644646;28;5779353;-65
2021/04/09 00:03:59;;;;;;;;;21.00;19.33;;;;;9.34;42.63;99560.00;5638187;28;5713735;-65
2021/04/09 00:07:06;;;;;;;;;21.00;19.00;;;;;9.27;42.71;99552.91;5637250;28;6510940;-65
2021/04/09 00:10:16;;;;;;;;;21.71;19.71;;;;;9.30;42.19;99558.72;5647477;28;6504289;-65
2021/04/09 00:13:23;;;;;;;;;20.29;16.14;;;;;9.36;42.36;99562.50;5635727;28;5755431;-64
2021/04/09 00:16:30;;;;;;;;;21.00;19.50;;;;;9.44;42.11;99571.22;5647461;28;5746004;-65
2021/04/09 00:19:38;;;;;;;;;22.86;20.71;;;;;9.44;42.25;99570.41;5648030;28;6521953;-64
2021/04/09 00:22:44;;;;;;;;;21.50;18.50;;;;;9.47;42.00;99570.03;5620134;28;5729678;-64
2021/04/09 00:25:51;;;;;;;;;19.71;18.00;;;;;9.44;41.95;99571.22;5637879;28;6473070;-64
2021/04/09 00:28:59;;;;;;;;;19.00;17.00;;;;;9.41;41.98;99571.66;5619742;28;5759547;-64
2021/04/09 00:32:05;;;;;;;;;20.86;19.29;;;;;9.44;41.92;99571.22;5638332;28;6518876;-64
2021/04/09 00:35:13;;;;;;;;;19.29;18.29;;;;;9.46;41.92;99574.56;5641247;28;6493888;-64
2021/04/09 00:38:21;;;;;;;;;22.71;20.00;;;;;9.44;41.93;99573.09;5623761;28;6510857;-64
2021/04/09 00:41:28;;;;;;;;;20.00;19.83;;;;;9.43;41.89;99574.16;5616295;28;5754303;-64
2021/04/09 00:44:36;;;;;;;;;20.86;19.86;;;;;9.42;42.05;99569.78;5596590;28;6510518;-64
2021/04/09 00:47:45;;;;;;;;;22.14;19.43;;;;;9.34;42.18;99564.53;5647944;28;6496969;-64
2021/04/09 00:50:53;;;;;;;;;20.71;19.00;;;;;9.29;42.27;99570.50;5629302;28;6491741;-64
2021/04/09 00:54:03;;;;;;;;;21.00;18.33;;;;;9.11;42.39;99559.44;5626613;28;5775193;-64
2021/04/09 00:57:09;;;;;;;;;23.67;21.00;;;;;9.17;42.58;99566.72;5612343;28;4180403;-65
2021/04/09 01:00:17;;;;;;;;;21.50;18.20;;;;;9.16;42.51;99562.34;5639902;28;5773110;-64
2021/04/09 01:03:25;;;;;;;;;21.71;19.71;;;;;8.90;42.54;99546.00;5647157;28;6529261;-64
2021/04/09 01:06:32;;;;;;;;;21.29;20.43;;;;;8.99;42.45;99544.88;5637721;28;6495344;-64
2021/04/09 01:09:40;;;;;;;;;20.86;18.43;;;;;9.12;42.47;99561.94;5647454;28;5764699;-64
2021/04/09 01:12:48;;;;;;;;;19.29;18.29;;;;;9.13;42.23;99557.38;5637523;28;5758554;-64
2021/04/09 01:16:00;;;;;;;;;19.00;17.00;;;;;9.11;42.12;99560.25;5643515;28;6498074;-64
2021/04/09 01:19:25;;;;;;;;;18.00;17.00;;;;;9.02;41.85;99561.44;5639987;28;5751478;-64
2021/04/09 01:22:40;;;;;;;;;17.29;17.29;;;;;9.03;41.68;99556.88;5624317;28;5742939;-64
2021/04/09 01:26:05;;;;;;;;;18.14;17.57;;;;;9.04;41.62;99562.06;5622538;28;6488718;-64
2021/04/09 01:29:49;;;;;;;;;17.50;15.00;;;;;9.02;41.48;99560.59;5605739;28;5754407;-64
2021/04/09 01:32:56;;;;;;;;;14.33;14.33;;;;;8.84;41.56;99539.59;5649735;28;5710564;-64
2021/04/09 01:36:10;;;;;;;;;16.00;15.00;;;;;8.92;41.62;99541.28;5650819;28;5752226;-64
2021/04/09 01:39:23;;;;;;;;;17.29;16.57;;;;;9.01;41.48;99556.25;5636470;28;6491833;-64
2021/04/09 01:42:35;;;;;;;;;17.00;16.29;;;;;8.93;41.43;99533.03;5629871;28;5752339;-65
2021/04/09 01:45:41;;;;;;;;;17.00;14.33;;;;;9.05;41.25;99552.13;5637959;28;5721042;-65
2021/04/09 01:48:49;;;;;;;;;17.60;16.20;;;;;9.05;41.30;99554.81;5643339;28;5749102;-65
2021/04/09 01:51:59;;;;;;;;;16.83;15.33;;;;;9.01;41.24;99546.31;5630344;28;5748132;-64
2021/04/09 01:55:08;;;;;;;;;17.00;15.78;;;;;9.08;41.08;99546.38;5632746;28;3229395;-65
2021/04/09 01:58:16;;;;;;;;;16.00;15.00;;;;;9.04;41.02;99547.81;5625835;28;5721313;-64
2021/04/09 02:01:23;;;;;;;;;14.43;14.43;;;;;9.04;40.86;99540.53;5631891;28;5710844;-64
2021/04/09 02:04:31;;;;;;;;;16.71;15.71;;;;;9.06;40.85;99543.03;5641080;28;5756511;-64
2021/04/09 02:07:41;;;;;;;;;16.83;15.83;;;;;9.07;40.60;99545.53;5630723;28;5760987;-64
2021/04/09 02:10:48;;;;;;;;;16.00;14.00;;;;;9.07;40.52;99542.03;5636769;28;4067952;-64
2021/04/09 02:13:56;;;;;;;;;15.14;13.57;;;;;9.07;40.50;99542.03;5648980;28;5729434;-64
2021/04/09 02:17:04;;;;;;;;;15.83;14.33;;;;;9.07;40.47;99547.41;5627082;28;5735593;-64
2021/04/09 02:20:15;;;;;;;;;16.22;14.56;;;;;9.04;40.33;99543.22;5618896;28;5730329;-64
2021/04/09 02:23:22;;;;;;;;;16.33;14.00;;;;;9.04;40.36;99542.41;5592120;28;4988829;-64
2021/04/09 02:26:28;;;;;;;;;13.17;12.00;;;;;9.03;40.28;99552.34;5627088;28;5693943;-64
2021/04/09 02:29:34;;;;;;;;;16.33;15.67;;;;;8.99;40.37;99544.88;5600346;28;5752176;-64
2021/04/09 02:32:40;;;;;;;;;15.50;13.50;;;;;9.01;40.23;99543.63;5600686;28;5727233;-64
2021/04/09 02:35:46;;;;;;;;;15.00;14.00;;;;;9.01;40.07;99548.19;5631447;28;5714729;-64
2021/04/09 02:38:57;;;;;;;;;15.67;14.00;;;;;8.82;40.13;99522.81;5649670;28;5716783;-64
2021/04/09 02:42:08;;;;;;;;;17.00;15.20;;;;;8.94;40.20;99539.25;5640142;28;5739754;-64
2021/04/09 02:45:13;;;;;;;;;14.00;13.00;;;;;8.92;39.94;99539.44;5636147;28;4450748;-64
2021/04/09 02:48:20;;;;;;;;;14.17;12.83;;;;;8.93;39.85;99530.34;5646135;28;5698065;-64
2021/04/09 02:51:30;;;;;;;;;15.29;13.14;;;;;8.94;39.80;99533.88;5632297;28;6460923;-64
2021/04/09 02:54:38;;;;;;;;;12.00;11.00;;;;;8.93;39.87;99534.88;5648854;28;5712646;-64
2021/04/09 02:57:47;;;;;;;;;13.00;11.67;;;;;8.92;39.79;99530.53;5648476;28;4948108;-65
2021/04/09 03:00:55;;;;;;;;;12.00;11.00;;;;;8.92;39.83;99528.66;5613552;28;5693904;-65
2021/04/09 03:04:02;;;;;;;;;14.00;12.00;;;;;8.91;39.59;99537.75;5630825;28;5691872;-65
2021/04/09 03:07:11;;;;;;;;;13.83;13.33;;;;;8.90;39.81;99530.72;5648543;28;4978382;-65
2021/04/09 03:10:19;;;;;;;;;14.00;13.00;;;;;8.84;39.69;99520.75;5648190;28;5712759;-65
2021/04/09 03:13:22;;;;;;;;;13.33;12.00;;;;;8.90;39.65;99524.50;5618408;28;4537673;-64
2021/04/09 03:16:39;;;;;;;;;11.86;11.86;;;;;8.91;39.43;99529.69;5647590;28;5701271;-65
2021/04/09 03:19:46;;;;;;;;;14.71;14.00;;;;;8.92;39.59;99525.16;5647873;28;5693290;-65
2021/04/09 03:22:53;;;;;;;;;15.00;13.00;;;;;8.87;39.48;99533.81;5649223;28;5725172;-64
2021/04/09 03:26:00;;;;;;;;;12.50;11.00;;;;;8.84;39.53;99522.63;5646231;28;5698133;-64
2021/04/09 03:29:05;;;;;;;;;15.00;14.50;;;;;8.83;39.59;99537.91;5637340;28;4989825;-65
2021/04/09 03:32:12;;;;;;;;;11.67;11.67;;;;;8.82;39.58;99530.03;5628014;28;5687008;-64
2021/04/09 03:35:18;;;;;;;;;13.00;12.00;;;;;8.80;39.35;99534.75;5646125;28;5700205;-65
2021/04/09 03:38:25;;;;;;;;;12.00;11.00;;;;;8.64;39.42;99503.63;5629292;28;5669959;-64
2021/04/09 03:41:31;;;;;;;;;12.17;11.50;;;;;8.75;39.25;99521.09;5647878;28;5692874;-64
2021/04/09 03:44:48;;;;;;;;;13.00;13.00;;;;;8.60;39.49;99495.09;5630488;28;5700173;-65
2021/04/09 03:47:54;;;;;;;;;11.40;11.00;;;;;8.67;39.36;99519.38;5647224;28;4959562;-65
2021/04/09 03:51:01;;;;;;;;;14.00;12.17;;;;;8.62;39.34;99519.94;5629297;28;5693932;-65
2021/04/09 03:54:07;;;;;;;;;11.83;10.33;;;;;8.64;39.48;99517.06;5629833;28;5667896;-64
2021/04/09 03:57:13;;;;;;;;;12.60;9.60;;;;;8.63;39.48;99518.94;5629330;28;4929403;-64
2021/04/09 04:00:20;;;;;;;;;14.00;11.40;;;;;8.66;39.43;99512.31;5648119;28;4945335;-65
2021/04/09 04:03:25;;;;;;;;;11.33;10.33;;;;;8.67;39.33;99525.56;5648134;28;5673076;-64
2021/04/09 04:06:30;;;;;;;;;13.00;11.00;;;;;8.67;39.43;99514.00;5638595;28;4954390;-64
2021/04/09 04:09:37;;;;;;;;;13.83;12.33;;;;;8.64;39.43;99512.53;5647728;28;5696002;-64
2021/04/09 04:12:42;;;;;;;;;10.60;9.00;;;;;8.67;39.41;99524.75;5629492;28;4926578;-64
2021/04/09 04:15:48;;;;;;;;;13.00;10.50;;;;;8.64;39.17;99509.84;5629347;28;4954357;-64
2021/04/09 04:18:53;;;;;;;;;11.60;10.60;;;;;8.61;39.30;99520.13;5647743;28;4945003;-64
2021/04/09 04:21:58;;;;;;;;;10.00;10.00;;;;;8.63;39.43;99518.94;5647534;28;4938044;-64
2021/04/09 04:25:06;;;;;;;;;12.40;10.00;;;;;8.70;39.29;99529.72;5612625;28;4948156;-65
2021/04/09 04:28:11;;;;;;;;;14.33;12.00;;;;;8.69;39.30;99520.00;5638732;28;4975324;-64
2021/04/09 04:31:17;;;;;;;;;12.50;11.00;;;;;8.80;39.13;99535.59;5647804;28;5693915;-64
2021/04/09 04:34:24;;;;;;;;;14.00;12.67;;;;;8.84;39.09;99531.50;5648768;28;5708863;-64
2021/04/09 04:37:27;;;;;;;;;14.00;12.00;;;;;8.69;38.89;99495.81;5617237;28;4244968;-64
2021/04/09 04:40:32;;;;;;;;;13.00;12.00;;;;;8.94;38.93;99533.88;5616140;28;4334632;-64
2021/04/09 04:43:36;;;;;;;;;12.83;10.83;;;;;9.04;38.60;99537.03;5640081;28;5685567;-64
2021/04/09 04:46:43;;;;;;;;;13.00;12.00;;;;;9.11;38.62;99533.34;5647480;28;5698093;-65
2021/04/09 04:49:49;;;;;;;;;10.67;10.67;;;;;9.18;38.35;99527.19;5628342;28;4927295;-64
2021/04/09 04:52:56;;;;;;;;;13.67;13.00;;;;;9.24;38.52;99526.38;5646419;28;5682470;-64
2021/04/09 04:56:02;;;;;;;;;11.83;10.83;;;;;9.29;38.24;99532.84;5629185;28;5690140;-64
2021/04/09 04:59:05;;;;;;;;;13.00;13.00;;;;;9.42;38.00;99534.81;5599921;28;4268942;-64
2021/04/09 05:02:11;;;;;;;;;12.20;11.00;;;;;9.51;37.53;99531.75;5646133;28;4927284;-65
2021/04/09 05:05:15;;;;;;;;;10.60;10.00;;;;;9.61;37.61;99526.00;5646843;28;4946013;-65
2021/04/09 05:08:21;;;;;;;;;11.17;9.67;;;;;9.58;37.31;99513.75;5646863;28;5654358;-64
2021/04/09 05:11:28;;;;;;;;;11.67;11.00;;;;;9.79;37.20;99531.66;5642134;28;5680382;-65
2021/04/09 05:14:33;;;;;;;;;11.40;10.40;;;;;9.87;36.65;99530.66;5637219;28;4910614;-65
2021/04/09 05:17:38;;;;;;;;;11.20;11.00;;;;;9.88;36.29;99526.91;5641623;28;4930393;-65
2021/04/09 05:20:41;;;;;;;;;11.00;11.00;;;;;9.95;36.40;99522.41;5618536;28;4944995;-65
2021/04/09 05:23:47;;;;;;;;;11.67;11.00;;;;;10.08;36.18;99527.81;5629989;28;5675162;-65
2021/04/09 05:26:54;;;;;;;;;12.00;12.00;;;;;10.17;36.00;99526.63;5588073;28;4957522;-64
2021/04/09 05:30:01;;;;;;;;;10.67;10.00;;;;;10.23;35.92;99523.13;5626004;28;4916902;-64
2021/04/09 05:33:06;;;;;;;;;12.00;11.00;;;;;10.12;35.67;99494.03;5620854;28;5675545;-64
2021/04/09 05:36:12;;;;;;;;;13.33;11.00;;;;;10.47;35.60;99518.19;5635366;28;4935636;-64
2021/04/09 05:39:17;;;;;;;;;11.60;10.00;;;;;10.62;35.70;99516.13;5607537;28;4944994;-64
2021/04/09 05:42:25;;;;;;;;;13.00;12.00;;;;;10.70;35.36;99516.75;5607749;28;5693928;-64
2021/04/09 05:45:31;;;;;;;;;13.00;12.00;;;;;10.76;35.21;99520.50;5637748;28;5708522;-64
2021/04/09 05:48:37;;;;;;;;;12.00;11.00;;;;;10.88;35.32;99526.94;5653629;28;5680367;-64
2021/04/09 05:51:41;;;;;;;;;16.33;13.33;;;;;10.87;35.07;99525.28;5620427;28;4448128;-66
2021/04/09 05:54:48;;;;;;;;;13.60;13.60;;;;;11.01;35.01;99520.69;5625864;28;4963765;-65
2021/04/09 05:57:56;;;;;;;;;13.17;13.00;;;;;11.15;34.54;99525.03;5640860;28;5706858;-65
2021/04/09 06:01:03;;;;;;;;;13.71;13.29;;;;;11.27;34.39;99521.50;5613095;28;6429721;-65
2021/04/09 06:04:09;;;;;;;;;11.33;11.00;;;;;11.41;34.17;99524.16;5638607;28;5674135;-65
2021/04/09 06:07:14;;;;;;;;;9.00;9.00;;;;;11.43;33.08;99519.38;5636653;28;4887103;-65
2021/04/09 06:10:20;;;;;;;;;9.17;9.00;;;;;11.28;32.65;99490.78;5662190;28;4863803;-64
2021/04/09 06:13:25;;;;;;;;;9.60;9.00;;;;;11.38;32.56;99519.19;5633536;28;4355364;-65
2021/04/09 06:16:32;;;;;;;;;9.22;9.00;;;;;11.61;32.82;99506.03;5666922;28;4871340;-64
2021/04/09 06:19:36;;;;;;;;;10.33;9.83;;;;;11.71;32.71;99506.41;5649263;28;4029333;-64
2021/04/09 06:22:42;;;;;;;;;13.00;11.00;;;;;11.65;32.06;99508.09;5623932;28;4954760;-65
2021/04/09 06:25:47;;;;;;;;;12.40;10.80;;;;;11.87;32.31;99510.53;5641719;28;4928306;-64
2021/04/09 06:28:57;;;;;;;;;11.60;11.60;;;;;11.92;31.78;99497.22;5624112;28;4961712;-65
2021/04/09 06:32:07;;;;;;;;;12.83;11.83;;;;;12.04;32.20;99500.88;5616866;28;4960688;-64
2021/04/09 06:35:14;;;;;;;;;12.00;11.00;;;;;12.23;31.82;99502.63;5650154;28;4951271;-64
2021/04/09 06:38:20;;;;;;;;;12.33;12.00;;;;;12.26;31.54;99504.09;5640997;28;4954354;-64
2021/04/09 06:41:24;;;;;;;;;11.00;10.00;;;;;12.36;31.27;99497.16;5612356;28;4116959;-64
2021/04/09 06:44:31;;;;;;;;;10.00;9.20;;;;;12.26;30.89;99504.91;5644349;28;4918936;-64
2021/04/09 06:47:37;;;;;;;;;9.20;9.20;;;;;12.23;30.83;99496.38;5624095;28;4895006;-64
2021/04/09 06:50:41;;;;;;;;;10.00;9.00;;;;;12.28;30.34;99504.69;5656056;28;4906470;-64
2021/04/09 06:53:48;;;;;;;;;11.67;10.67;;;;;12.40;31.28;99492.97;5638694;28;4338697;-64
2021/04/09 06:56:57;;;;;;;;;11.00;10.00;;;;;12.59;30.28;99494.69;5642374;28;4929396;-64
2021/04/09 07:00:07;;;;;;;;;12.67;12.00;;;;;12.91;30.32;99494.63;5621388;28;4979713;-64
2021/04/09 07:03:13;;;;;;;;;10.50;9.50;;;;;13.01;30.17;99493.06;5636950;28;5654298;-64
2021/04/09 07:06:18;;;;;;;;;9.00;9.00;;;;;13.32;29.62;99494.06;5647837;28;4287714;-64
2021/04/09 07:09:24;;;;;;;;;12.50;11.50;;;;;13.38;28.77;99494.00;5645532;28;5691877;-64
2021/04/09 07:12:31;;;;;;;;;12.40;11.40;;;;;13.76;28.90;99484.78;5641106;28;4949159;-64
2021/04/09 07:15:40;;;;;;;;;11.83;11.00;;;;;13.81;28.51;99493.06;5638740;28;4966882;-64
2021/04/09 07:18:47;;;;;;;;;10.20;10.00;;;;;13.96;28.65;99495.38;5633208;28;4942880;-64
2021/04/09 07:22:01;;;;;;;;;12.17;11.00;;;;;14.08;28.41;99488.09;5634617;28;5679367;-64
2021/04/09 07:25:09;;;;;;;;;14.00;12.00;;;;;14.20;28.08;99480.88;5639744;28;4947110;-65
2021/04/09 07:28:16;;;;;;;;;10.00;10.00;;;;;14.39;28.19;99482.47;5624910;28;4933533;-63
2021/04/09 07:31:28;;;;;;;;;11.00;10.00;;;;;14.49;28.35;99480.03;5639297;28;4929414;-63
2021/04/09 07:34:51;;;;;;;;;10.00;10.00;;;;;14.64;28.23;99477.72;5638656;28;5672378;-63
2021/04/09 07:37:59;;;;;;;;;12.00;12.00;;;;;14.71;27.72;99470.25;5640537;28;4948222;-64
2021/04/09 07:41:07;;;;;;;;;15.00;13.00;;;;;14.88;28.49;99472.28;5638926;28;5702304;-64
2021/04/09 07:44:14;;;;;;;;;8.00;8.00;;;;;15.15;26.31;99468.88;5620906;28;4886742;-64
2021/04/09 07:47:18;;;;;;;;;10.25;9.25;;;;;15.54;26.12;99463.78;5625199;28;3141938;-64
2021/04/09 07:50:35;;;;;;;;;9.00;8.00;;;;;15.71;25.57;99459.25;5614293;28;4865907;-64
2021/04/09 07:53:45;;;;;;;;;8.40;8.00;;;;;15.91;25.02;99466.97;5640634;28;4864771;-63
2021/04/09 07:56:49;;;;;;;;;7.67;7.67;;;;;15.96;25.22;99462.47;5638215;28;4879441;-64
2021/04/09 07:59:54;;;;;;;;;8.60;8.00;;;;;16.14;24.97;99449.72;5648918;28;4882513;-64
2021/04/09 08:02:59;;;;;;;;;8.00;7.80;;;;;16.24;24.21;99464.34;5635803;28;4857483;-64
2021/04/09 08:06:12;;;;;;;;;6.00;6.00;;;;;16.28;24.02;99445.63;5622831;28;4848133;-64
2021/04/09 08:09:14;;;;;;;;;8.80;8.00;;;;;16.47;23.80;99456.03;5605365;28;4865807;-64
2021/04/09 08:12:27;;;;;;;;;8.80;8.00;;;;;16.45;24.12;99443.75;5615986;28;4886620;-64
2021/04/09 08:15:33;;;;;;;;;11.00;9.00;;;;;16.49;24.05;99447.63;5629681;28;4267943;-64
2021/04/09 08:18:39;;;;;;;;;9.20;8.20;;;;;16.30;23.27;99444.31;5608262;28;4882442;-64
2021/04/09 08:21:44;;;;;;;;;8.00;7.00;;;;;16.45;24.14;99441.88;5632860;28;4850220;-64
2021/04/09 08:24:50;;;;;;;;;9.00;8.00;;;;;16.50;23.86;99441.13;5672237;28;4885595;-64
2021/04/09 08:27:53;;;;;;;;;7.60;7.60;;;;;16.56;24.03;99442.03;5629956;28;4872101;-64
2021/04/09 08:30:59;;;;;;;;;9.00;9.00;;;;;16.93;24.30;99434.22;5618612;28;4881456;-64
2021/04/09 08:34:12;;;;;;;;;7.00;7.00;;;;;17.10;23.74;99441.31;5640618;28;4872066;-64
2021/04/09 08:37:15;;;;;;;;;7.00;6.60;;;;;17.14;23.97;99434.28;5630821;28;4856434;-64
2021/04/09 08:40:19;;;;;;;;;8.50;8.50;;;;;17.48;24.01;99423.25;5625587;28;4462442;-64
2021/04/09 08:43:25;;;;;;;;;8.83;7.00;;;;;17.65;22.85;99426.78;5632454;28;4878366;-64
2021/04/09 08:46:28;;;;;;;;;9.17;8.00;;;;;17.87;22.22;99424.84;5623615;28;4173157;-64
2021/04/09 08:49:34;;;;;;;;;7.40;6.60;;;;;18.01;22.35;99420.66;5638203;28;4869951;-64
2021/04/09 08:52:42;;;;;;;;;7.00;6.00;;;;;17.80;22.54;99413.31;5617365;28;4853319;-65
2021/04/09 08:55:45;;;;;;;;;8.00;8.00;;;;;18.02;22.52;99407.84;5626969;28;4158556;-64
2021/04/09 08:58:48;;;;;;;;;6.00;6.00;;;;;18.02;22.25;99402.38;5630778;28;4840893;-64
2021/04/09 09:02:12;;;;;;;;;7.80;7.00;;;;;18.32;21.96;99399.94;5622010;28;4869994;-64
2021/04/09 09:05:19;;;;;;;;;7.00;6.33;;;;;18.80;22.15;99382.59;5625085;28;4160633;-64
2021/04/09 09:08:22;;;;;;;;;6.60;6.60;;;;;18.96;20.75;99392.50;5624409;28;4867924;-64
2021/04/09 09:11:50;;;;;;;;;7.00;7.00;;;;;18.93;19.85;99384.84;5628981;28;4880447;-63
2021/04/09 09:14:54;;;;;;;;;5.00;5.00;;;;;19.23;20.55;99381.47;5614645;28;4839792;-63
2021/04/09 09:17:59;;;;;;;;;8.40;7.40;;;;;19.25;20.32;99376.56;5623719;28;4862722;-63
2021/04/09 09:21:03;;;;;;;;;7.00;6.00;;;;;19.31;18.77;99371.91;5625359;28;4852360;-63
2021/04/09 09:24:18;;;;;;;;;5.40;5.00;;;;;19.53;18.92;99367.13;5612003;28;4850204;-63
2021/04/09 09:27:21;;;;;;;;;6.20;6.20;;;;;19.62;19.03;99367.44;5616265;28;4852275;-65
2021/04/09 09:30:29;;;;;;;;;4.00;4.00;;;;;19.86;19.18;99358.47;5627371;28;4850208;-64
2021/04/09 09:33:33;;;;;;;;;5.43;5.00;;;;;19.78;18.57;99359.00;5629126;28;4854358;-65
2021/04/09 09:36:58;;;;;;;;;6.00;6.00;;;;;19.84;18.50;99352.44;5638796;28;4839863;-65
2021/04/09 09:40:05;;;;;;;;;6.00;6.00;;;;;19.77;18.46;99364.75;5636536;28;4139139;-65
2021/04/09 09:43:09;;;;;;;;;5.60;4.60;;;;;19.82;18.82;99343.69;5637760;28;4876240;-65
2021/04/09 09:46:50;;;;;;;;;5.00;5.00;;;;;19.78;18.71;99334.38;5646335;28;4120002;-66
2021/04/09 09:50:20;;;;;;;;;6.78;5.56;;;;;19.74;18.49;99344.19;5631078;28;4148092;-64
2021/04/09 09:53:26;;;;;;;;;6.00;6.00;;;;;19.41;18.41;99331.78;5624872;28;4870139;-63
2021/04/09 09:56:34;;;;;;;;;6.40;6.00;;;;;20.04;19.27;99318.78;5671545;28;4854334;-63
2021/04/09 09:59:41;;;;;;;;;5.40;5.00;;;;;20.41;18.44;99310.34;5634193;28;4142203;-63
2021/04/09 10:02:45;;;;;;;;;5.00;4.80;;;;;20.62;17.96;99316.63;5629158;28;4824127;-65
2021/04/09 10:05:50;;;;;;;;;6.00;6.00;;;;;20.54;17.33;99303.47;5639376;28;4839771;-65
2021/04/09 10:08:55;;;;;;;;;5.50;5.00;;;;;20.72;19.09;99298.22;5643075;28;4141918;-64
2021/04/09 10:12:01;;;;;;;;;5.11;5.11;;;;;20.69;18.26;99290.56;5657044;28;4126317;-63
2021/04/09 10:15:05;;;;;;;;;6.20;6.00;;;;;20.92;18.35;99297.34;5637275;28;4141977;-63
2021/04/09 10:18:08;;;;;;;;;6.60;6.60;;;;;21.16;18.37;99287.41;5615003;28;4856441;-63
2021/04/09 10:21:13;;;;;;;;;6.00;6.00;;;;;21.22;17.85;99269.03;5633664;28;4868956;-63
2021/04/09 10:24:18;;;;;;;;;5.00;5.00;;;;;21.55;17.64;99271.03;5600223;28;4856445;-62
2021/04/09 10:27:24;;;;;;;;;6.40;6.40;;;;;21.83;17.11;99271.41;5671630;28;4857460;-63
2021/04/09 10:30:28;;;;;;;;;6.00;5.00;;;;;21.80;17.09;99258.22;5618513;28;4841930;-63
2021/04/09 10:33:38;;;;;;;;;6.20;6.20;;;;;21.71;16.19;99266.25;5626807;28;4833557;-63
2021/04/09 10:36:45;;;;;;;;;7.80;7.00;;;;;21.69;16.26;99264.91;5653717;28;4867193;-63
2021/04/09 10:39:50;;;;;;;;;6.00;5.40;;;;;21.36;16.82;99239.88;5628555;28;4129527;-64
2021/04/09 10:43:00;;;;;;;;;7.00;7.00;;;;;21.35;17.16;99257.44;5634976;28;4137720;-63
2021/04/09 10:46:09;;;;;;;;;5.40;5.00;;;;;21.53;17.14;99245.81;5623279;28;4133557;-64
2021/04/09 10:49:16;;;;;;;;;6.80;6.80;;;;;21.48;16.63;99240.34;5639313;28;4872059;-64
2021/04/09 10:52:20;;;;;;;;;6.20;5.00;;;;;21.71;17.03;99225.09;5626300;28;4859559;-65
2021/04/09 10:55:32;;;;;;;;;5.17;5.17;;;;;21.73;16.79;99233.06;5625377;28;4864793;-66
2021/04/09 10:58:36;;;;;;;;;4.60;4.60;;;;;21.69;16.17;99226.50;5639227;28;4818939;-65
2021/04/09 11:01:42;;;;;;;;;5.00;4.00;;;;;21.72;17.30;99221.25;5629515;28;4826295;-64
2021/04/09 11:04:50;;;;;;;;;7.20;7.00;;;;;21.76;17.60;99238.78;5632903;28;4878289;-65
2021/04/09 11:07:55;;;;;;;;;6.00;6.00;;;;;21.55;18.07;99238.09;5635858;28;4446073;-64
2021/04/09 11:11:14;;;;;;;;;5.00;5.00;;;;;21.84;16.89;99218.97;5659436;28;3785674;-64
2021/04/09 11:14:18;;;;;;;;;5.60;5.60;;;;;21.98;16.59;99232.88;5617152;28;4852631;-64
2021/04/09 11:17:24;;;;;;;;;5.00;5.00;;;;;22.14;17.05;99204.16;5632384;28;4145108;-64
2021/04/09 11:20:30;;;;;;;;;4.20;4.00;;;;;22.38;16.87;99212.47;5615401;28;4838788;-64
2021/04/09 11:23:38;;;;;;;;;4.33;4.00;;;;;22.31;16.37;99226.53;5615846;28;4865888;-63
2021/04/09 11:26:46;;;;;;;;;4.22;4.22;;;;;22.37;16.48;99216.31;5657181;28;4835655;-63
2021/04/09 11:29:50;;;;;;;;;5.00;4.40;;;;;22.48;15.74;99196.66;5640453;28;4838801;-64
2021/04/09 11:32:58;;;;;;;;;4.30;4.00;;;;;22.48;15.79;99202.16;5667263;28;4879466;-63
2021/04/09 11:36:14;;;;;;;;;4.00;3.80;;;;;22.32;16.40;99184.22;5604951;28;4875174;-64
2021/04/09 11:39:18;;;;;;;;;4.00;4.00;;;;;22.38;15.96;99168.50;5609768;28;4858509;-63
2021/04/09 11:42:30;;;;;;;;;4.83;4.83;;;;;22.52;17.05;99177.69;5623942;28;4868937;-64
2021/04/09 11:45:39;;;;;;;;;3.80;3.80;;;;;22.60;16.42;99198.19;5658775;28;4835644;-63
2021/04/09 11:48:43;;;;;;;;;5.20;5.00;;;;;22.78;16.71;99186.44;5610495;28;4862679;-63
2021/04/09 11:51:57;;;;;;;;;6.00;6.00;;;;;22.72;15.80;99187.63;5624893;28;4854381;-63
2021/04/09 11:55:01;;;;;;;;;4.40;4.00;;;;;22.59;16.21;99193.78;5639931;28;4870985;-63
2021/04/09 11:58:18;;;;;;;;;6.00;6.00;;;;;22.69;16.44;99182.69;5656212;28;4856469;-63
2021/04/09 12:01:27;;;;;;;;;4.00;4.00;;;;;22.75;16.21;99174.13;5635069;28;4840825;-62
2021/04/09 12:04:36;;;;;;;;;3.00;3.00;;;;;22.80;16.60;99170.50;5629626;28;4148254;-62
2021/04/09 12:07:41;;;;;;;;;4.00;4.00;;;;;22.68;15.62;99183.78;5622366;28;4852255;-62
2021/04/09 12:10:46;;;;;;;;;5.00;5.00;;;;;22.26;16.01;99157.91;5637951;28;4110583;-62
2021/04/09 12:13:50;;;;;;;;;3.00;3.00;;;;;22.23;16.79;99166.75;5625872;28;4865832;-63
2021/04/09 12:16:57;;;;;;;;;3.00;3.00;;;;;22.31;16.82;99168.03;5656961;28;4141968;-62
2021/04/09 12:20:00;;;;;;;;;3.00;3.00;;;;;22.32;16.03;99151.25;5646120;28;4129388;-62
2021/04/09 12:23:04;;;;;;;;;4.40;4.00;;;;;22.22;16.91;99153.28;5640668;28;4851210;-65
2021/04/09 12:26:06;;;;;;;;;4.80;4.00;;;;;22.06;16.61;99163.59;5635994;28;4842917;-65
2021/04/09 12:29:12;;;;;;;;;3.67;3.67;;;;;22.01;16.79;99142.50;5646318;28;4864855;-63
2021/04/09 12:32:14;;;;;;;;;5.00;4.20;;;;;21.89;16.31;99144.78;5636321;28;4854422;-62
2021/04/09 12:35:17;;;;;;;;;4.00;4.00;;;;;21.89;16.35;99147.53;5650376;28;4850200;-64
2021/04/09 12:38:24;;;;;;;;;4.22;4.22;;;;;21.87;16.48;99133.28;5668848;28;4849182;-63
2021/04/09 12:41:32;;;;;;;;;4.50;4.00;;;;;21.95;17.19;99120.88;5666374;28;4862676;-63
2021/04/09 12:44:36;;;;;;;;;7.00;6.00;;;;;21.96;17.73;99130.75;5627280;28;4862766;-64
2021/04/09 12:47:42;;;;;;;;;4.00;4.00;;;;;21.78;17.21;99118.56;5649954;28;4834508;-64
2021/04/09 12:50:49;;;;;;;;;4.00;4.00;;;;;21.56;17.36;99108.06;5653463;28;4146057;-64
2021/04/09 12:53:53;;;;;;;;;4.40;4.00;;;;;21.45;17.23;99113.94;5638738;28;4860588;-64
2021/04/09 12:56:56;;;;;;;;;3.00;3.00;;;;;21.18;17.23;99117.97;5622287;28;4126329;-63
2021/04/09 13:00:08;;;;;;;;;4.11;4.00;;;;;21.13;16.70;99100.69;5650610;28;4823134;-63
2021/04/09 13:03:14;;;;;;;;;5.00;5.00;;;;;21.03;17.15;99109.81;5641322;28;4857882;-63
2021/04/09 13:06:19;;;;;;;;;4.00;3.40;;;;;20.91;17.44;99103.88;5616331;28;4384559;-65
2021/04/09 13:09:22;;;;;;;;;4.00;3.40;;;;;20.65;17.59;99102.38;5612432;28;4851230;-63
2021/04/09 13:12:25;;;;;;;;;4.40;4.00;;;;;20.76;17.74;99087.53;5646860;28;4113760;-63
2021/04/09 13:15:29;;;;;;;;;5.00;4.00;;;;;20.91;17.71;99092.91;5651213;28;4135655;-63
2021/04/09 13:18:34;;;;;;;;;4.00;4.00;;;;;20.94;17.86;99089.59;5655896;28;4850212;-63
2021/04/09 13:21:36;;;;;;;;;5.00;5.00;;;;;21.12;18.14;99077.94;5622446;28;4135711;-63
2021/04/09 13:24:39;;;;;;;;;4.00;4.00;;;;;21.04;17.78;99080.47;5649840;28;4839764;-63
2021/04/09 13:27:42;;;;;;;;;4.40;3.60;;;;;21.21;17.94;99080.91;5633009;28;4855425;-64
2021/04/09 13:30:47;;;;;;;;;4.00;4.00;;;;;21.23;17.34;99075.16;5638458;28;4838751;-64
2021/04/09 13:33:51;;;;;;;;;4.60;3.60;;;;;21.31;16.94;99060.81;5617393;28;4873123;-64
2021/04/09 13:36:53;;;;;;;;;4.25;4.25;;;;;21.16;17.38;99084.53;5629152;28;4133561;-64
2021/04/09 13:39:58;;;;;;;;;5.00;5.00;;;;;20.46;17.31;99071.25;5634128;28;4837680;-63
2021/04/09 13:43:23;;;;;;;;;5.60;5.60;;;;;20.67;17.59;99059.09;5629616;28;4841921;-64
2021/04/09 13:46:27;;;;;;;;;5.40;5.00;;;;;20.73;18.04;99061.50;5625320;28;4850223;-63
2021/04/09 13:49:30;;;;;;;;;6.00;5.40;;;;;20.61;17.65;99052.00;5635042;28;4850247;-64
2021/04/09 13:52:32;;;;;;;;;5.40;4.40;;;;;20.69;17.59;99040.44;5629436;28;4148548;-64
2021/04/09 13:55:36;;;;;;;;;6.00;6.00;;;;;20.59;18.39;99049.53;5637925;28;4854367;-63
2021/04/09 13:58:38;;;;;;;;;5.00;5.00;;;;;20.77;18.14;99028.06;5627218;28;4858548;-65
2021/04/09 14:01:42;;;;;;;;;5.00;5.00;;;;;20.97;17.87;99036.13;5636739;28;4141971;-63
2021/04/09 14:04:46;;;;;;;;;4.17;4.17;;;;;21.00;17.81;99041.88;5617739;28;4132464;-64
2021/04/09 14:07:49;;;;;;;;;6.40;6.00;;;;;20.91;17.93;99029.88;5636052;28;4866144;-64
2021/04/09 14:10:55;;;;;;;;;6.00;5.00;;;;;21.08;17.68;99027.53;5645695;28;4847071;-64
2021/04/09 14:13:58;;;;;;;;;4.00;4.00;;;;;20.64;17.28;99030.31;5627357;28;4120012;-64